Airfield :
LOGIN :

Register | Disclaimer

   EN    FR    IT 

 










Legend :    VFR   Marginal VFR   IFR   Intensive IFR   Very Intensive IFR
Visi :
Ceiling :
>= 8 km
>= 3000ft
5 to 8 km
1000 to 3000 ft
1500m to 5 km
500 to 1000 ft
800 to 1500m
200 to 500 ft
< 800m
< 200 ft
Symbols :   Thunderstorms  Fog  Heavy snow  Heavy precipitations  Wind > 20 kt
SIGMETs :     Misc.  Thunderstorms  Icing  Turbulence  Mountain Waves  Volcanic Ashes







- Airport Elevation : 404 ft
- IATA code : WRO


EPWR - Wroclaw

CURRENT METAR :
  • 122200Z 14004KT 6000 MIFG NSC 06/06 Q1021

EXPIRED METARs :
  • 122130Z 16003KT 110V190 3700 MIFG BR NSC 05/04 Q1021
  • 122100Z 13003KT 110V250 8000 MIFG NSC 07/06 Q1021
  • 122030Z 14003KT 100V170 8000 MIFG NSC 07/07 Q1021
  • 122000Z 12004KT 9999 MIFG NSC 07/07 Q1021
  • 121930Z VRB01KT CAVOK 08/07 Q1021

TAF TAF EPWR
Valid from the 12 at 21:00 until the 13 at 21:00 UTC


122030Z 1221/1321 13003KT 8000 NSC
BECMG 1221/1224 3000 BR
TEMPO 1300/1307 1200 BR
BECMG 1307/1310 CAVOK
BECMG 1312/1315 27010KT
TEMPO 1315/1319 4000 SHRA BR SCT009 BKN017CB
No reported NOTAMs for that airfield.



MET'MAP, your aeronautical weather chart ! - Copyright ORBIFLY December 2007 - Disclaimer

ORBIFLY MET'MAP TEAM :

Programming & Development : Alexandra Zaïnal
Concept & Development : Baudouin d'Aumeries
Co-Development & Prog : Marc-Olivier Méhu
Technical & hardware support : Manuel Goepfert

Contact : metmap@orbifly.com




SOURCES & CREDITS :

   NOAA